createdAt,value
2023-08-23T00:00:26.862Z,99603.03
2023-08-23T00:02:54.730Z,99599.59
2023-08-23T00:05:22.724Z,99588.06
2023-08-23T00:07:50.419Z,99588.31
2023-08-23T00:10:18.425Z,99576.88
2023-08-23T00:12:45.930Z,99574.87
2023-08-23T00:15:13.400Z,99569.53
2023-08-23T00:17:41.271Z,99571.28
2023-08-23T00:20:09.203Z,99568.69
2023-08-23T00:22:36.726Z,99575.56
2023-08-23T00:25:04.911Z,99577.09
2023-08-23T00:27:32.433Z,99564.31
2023-08-23T00:29:59.953Z,99570.59
2023-08-23T00:32:28.461Z,99559.69
2023-08-23T00:34:56.339Z,99570.38
2023-08-23T00:37:23.997Z,99569.28
2023-08-23T00:39:51.760Z,99554.56
2023-08-23T00:42:19.331Z,99556.63
2023-08-23T00:44:46.835Z,99560.81
2023-08-23T00:47:14.668Z,99554.41
2023-08-23T00:49:42.177Z,99560.28
2023-08-23T00:52:11.241Z,99561.50
2023-08-23T00:54:39.025Z,99552.56
2023-08-23T00:57:07.586Z,99555.84
2023-08-23T00:59:36.940Z,99547.09
2023-08-23T01:02:04.830Z,99553.19
2023-08-23T01:04:32.402Z,99547.25
2023-08-23T01:07:05.536Z,99550.78
2023-08-23T01:09:44.154Z,99548.09
2023-08-23T01:12:30.781Z,99553.44
2023-08-23T01:15:06.434Z,99546.88
2023-08-23T01:17:34.273Z,99548.34
2023-08-23T01:20:03.562Z,99545.66
2023-08-23T01:22:31.744Z,99547.50
2023-08-23T01:24:59.805Z,99549.56
2023-08-23T01:27:30.922Z,99550.84
2023-08-23T01:30:00.312Z,99556.34
2023-08-23T01:32:49.324Z,99552.06
2023-08-23T01:35:21.368Z,99554.88
2023-08-23T01:37:53.847Z,99555.12
2023-08-23T01:40:21.366Z,99554.34
2023-08-23T01:42:49.355Z,99548.16
2023-08-23T01:45:17.050Z,99552.81
2023-08-23T01:47:44.779Z,99546.50
2023-08-23T01:50:13.481Z,99548.84
2023-08-23T01:52:41.030Z,99547.53
2023-08-23T01:55:09.245Z,99546.56
2023-08-23T01:57:38.085Z,99547.16
2023-08-23T02:00:06.302Z,99544.59
2023-08-23T02:02:41.977Z,99539.28
2023-08-23T02:05:09.926Z,99541.44
2023-08-23T02:07:37.440Z,99540.69
2023-08-23T02:10:05.399Z,99537.94
2023-08-23T02:12:33.304Z,99536.16
2023-08-23T02:15:00.779Z,99532.38
2023-08-23T02:17:28.675Z,99525.62
2023-08-23T02:19:56.170Z,99525.03
2023-08-23T02:22:23.701Z,99517.19
2023-08-23T02:24:51.482Z,99519.31
2023-08-23T02:27:18.981Z,99517.41
2023-08-23T02:29:46.559Z,99517.19
2023-08-23T02:32:14.328Z,99516.19
2023-08-23T02:34:42.057Z,99507.88
2023-08-23T02:37:09.558Z,99514.38
2023-08-23T02:39:37.306Z,99515.53
2023-08-23T02:42:05.308Z,99507.22
2023-08-23T02:44:32.885Z,99511.16
2023-08-23T02:47:00.713Z,99513.69
2023-08-23T02:49:28.619Z,99513.22
2023-08-23T02:51:56.144Z,99514.69
2023-08-23T02:54:23.900Z,99512.84
2023-08-23T02:56:51.471Z,99510.78
2023-08-23T02:59:19.023Z,99512.91
2023-08-23T03:01:46.775Z,99516.41
2023-08-23T03:04:14.375Z,99511.13
2023-08-23T03:06:41.937Z,99512.34
2023-08-23T03:09:09.693Z,99515.53
2023-08-23T03:11:37.164Z,99516.03
2023-08-23T03:14:04.695Z,99515.38
2023-08-23T03:16:32.602Z,99512.69
2023-08-23T03:19:00.321Z,99525.75
2023-08-23T03:21:28.531Z,99519.25
2023-08-23T03:23:56.690Z,99521.94
2023-08-23T03:26:24.222Z,99523.00
2023-08-23T03:28:52.624Z,99515.16
2023-08-23T03:31:20.442Z,99513.06
2023-08-23T03:33:47.988Z,99511.00
2023-08-23T03:36:15.540Z,99504.00
2023-08-23T03:38:43.369Z,99506.75
2023-08-23T03:41:14.398Z,99503.72
2023-08-23T03:43:42.022Z,99507.91
2023-08-23T03:46:10.488Z,99508.91
2023-08-23T03:48:38.029Z,99506.63
2023-08-23T03:51:05.612Z,99513.75
2023-08-23T03:53:33.389Z,99509.28
2023-08-23T03:56:00.959Z,99514.84
2023-08-23T03:58:30.319Z,99517.84
2023-08-23T04:00:58.285Z,99514.13
2023-08-23T04:03:26.227Z,99507.19
2023-08-23T04:05:54.009Z,99508.03
2023-08-23T04:08:21.490Z,99517.22
2023-08-23T04:10:50.348Z,99509.88
2023-08-23T04:13:18.348Z,99507.38
2023-08-23T04:15:46.379Z,99509.59
2023-08-23T04:18:14.204Z,99508.72
2023-08-23T04:20:42.239Z,99493.44
2023-08-23T04:23:10.115Z,99490.78
2023-08-23T04:25:37.944Z,99495.34
2023-08-23T04:28:05.932Z,99486.03
2023-08-23T04:30:33.514Z,99484.63
2023-08-23T04:33:02.118Z,99493.41
2023-08-23T04:35:29.838Z,99488.69
2023-08-23T04:37:57.470Z,99486.50
2023-08-23T04:40:25.954Z,99496.16
2023-08-23T04:42:53.483Z,99495.16
2023-08-23T04:45:21.231Z,99497.31
2023-08-23T04:47:50.253Z,99495.56
2023-08-23T04:50:18.047Z,99493.88
2023-08-23T04:52:47.482Z,99501.59
2023-08-23T04:55:15.593Z,99493.47
2023-08-23T04:57:43.156Z,99504.16
2023-08-23T05:00:11.465Z,99505.37
2023-08-23T05:02:40.187Z,99501.94
2023-08-23T05:05:08.085Z,99501.56
2023-08-23T05:07:36.496Z,99495.91
2023-08-23T05:10:05.755Z,99501.56
2023-08-23T05:12:33.663Z,99501.25
2023-08-23T05:15:01.262Z,99492.47
2023-08-23T05:17:29.376Z,99492.94
2023-08-23T05:19:56.925Z,99492.50
2023-08-23T05:22:24.496Z,99493.62
2023-08-23T05:24:52.976Z,99495.03
2023-08-23T05:27:20.484Z,99493.25
2023-08-23T05:29:48.099Z,99503.19
2023-08-23T05:32:15.913Z,99494.09
2023-08-23T05:34:46.482Z,99504.50
2023-08-23T05:37:14.846Z,99494.59
2023-08-23T05:39:43.243Z,99508.09
2023-08-23T05:42:10.768Z,99496.25
2023-08-23T05:44:38.217Z,99500.19
2023-08-23T05:47:06.325Z,99503.56
2023-08-23T05:49:33.808Z,99503.94
2023-08-23T05:52:01.386Z,99496.63
2023-08-23T05:54:29.858Z,99505.53
2023-08-23T05:57:00.675Z,99502.44
2023-08-23T05:59:28.575Z,99501.09
2023-08-23T06:01:56.322Z,99509.72
2023-08-23T06:04:24.139Z,99501.09
2023-08-23T06:06:51.671Z,99495.44
2023-08-23T06:09:19.446Z,99496.06
2023-08-23T06:11:47.244Z,99505.28
2023-08-23T06:14:20.740Z,99500.06
2023-08-23T06:16:48.960Z,99499.94
2023-08-23T06:19:16.500Z,99505.13
2023-08-23T06:21:44.366Z,99502.78
2023-08-23T06:24:12.182Z,99501.31
2023-08-23T06:26:39.771Z,99503.69
2023-08-23T06:29:07.275Z,99504.13
2023-08-23T06:31:35.061Z,99504.72
2023-08-23T06:34:02.585Z,99506.91
2023-08-23T06:36:30.434Z,99507.31
2023-08-23T06:38:58.621Z,99511.59
2023-08-23T06:41:26.202Z,99515.44
2023-08-23T06:44:00.641Z,99515.00
2023-08-23T06:46:29.262Z,99516.25
2023-08-23T06:48:57.552Z,99510.84
2023-08-23T06:51:28.496Z,99516.62
2023-08-23T06:53:56.443Z,99518.63
2023-08-23T06:56:23.974Z,99524.16
2023-08-23T06:58:51.522Z,99527.13
2023-08-23T07:01:19.595Z,99536.19
2023-08-23T07:03:47.336Z,99529.16
2023-08-23T07:06:16.228Z,99532.78
2023-08-23T07:08:44.471Z,99531.03
2023-08-23T07:11:12.055Z,99526.22
2023-08-23T07:13:40.634Z,99524.88
2023-08-23T07:16:08.652Z,99523.91
2023-08-23T07:18:36.682Z,99534.28
2023-08-23T07:21:04.699Z,99534.03
2023-08-23T07:23:32.508Z,99532.28
2023-08-23T07:26:03.756Z,99536.63
2023-08-23T07:28:31.786Z,99536.16
2023-08-23T07:30:59.734Z,99543.00
2023-08-23T07:33:28.049Z,99548.44
2023-08-23T07:35:59.312Z,99547.19
2023-08-23T07:38:27.887Z,99547.72
2023-08-23T07:41:03.641Z,99560.69
2023-08-23T07:43:31.711Z,99552.75
2023-08-23T07:46:01.432Z,99557.44
2023-08-23T07:48:29.366Z,99558.00
2023-08-23T07:50:58.490Z,99559.37
2023-08-23T07:53:26.177Z,99551.16
2023-08-23T07:55:53.732Z,99555.09
2023-08-23T07:58:21.548Z,99553.25
2023-08-23T08:00:49.043Z,99561.31
2023-08-23T08:03:16.815Z,99555.00
2023-08-23T08:05:44.740Z,99556.75
2023-08-23T08:08:12.348Z,99560.75
2023-08-23T08:10:40.162Z,99557.41
2023-08-23T08:13:07.773Z,99555.41
2023-08-23T08:15:36.517Z,99553.78
2023-08-23T08:18:04.491Z,99551.44
2023-08-23T08:20:32.123Z,99550.56
2023-08-23T08:22:59.993Z,99556.88
2023-08-23T08:25:28.267Z,99545.25
2023-08-23T08:27:56.498Z,99542.81
2023-08-23T08:30:24.042Z,99543.09
2023-08-23T08:32:52.163Z,99540.56
2023-08-23T08:35:19.757Z,99546.06
2023-08-23T08:37:47.638Z,99544.72
2023-08-23T08:40:15.567Z,99551.22
2023-08-23T08:42:43.153Z,99543.31
2023-08-23T08:45:11.349Z,99555.75
2023-08-23T08:47:39.204Z,99550.78
2023-08-23T08:50:06.892Z,99553.53
2023-08-23T08:52:34.458Z,99552.72
2023-08-23T08:55:02.530Z,99554.47
2023-08-23T08:57:30.437Z,99552.72
2023-08-23T08:59:59.458Z,99555.28
2023-08-23T09:02:27.524Z,99561.75
2023-08-23T09:04:55.152Z,99550.09
2023-08-23T09:07:22.779Z,99551.44
2023-08-23T09:09:51.832Z,99549.59
2023-08-23T09:12:20.291Z,99545.03
2023-08-23T09:14:51.610Z,99550.75
2023-08-23T09:17:24.261Z,99556.00
2023-08-23T09:19:52.736Z,99565.28
2023-08-23T09:22:22.167Z,99561.91
2023-08-23T09:24:49.863Z,99561.53
2023-08-23T09:27:31.169Z,99569.31
2023-08-23T09:30:05.498Z,99560.94
2023-08-23T09:32:33.226Z,99558.50
2023-08-23T09:35:11.539Z,99558.37
2023-08-23T09:37:47.172Z,99550.78
2023-08-23T09:40:30.145Z,99545.28
2023-08-23T09:42:59.953Z,99545.78
2023-08-23T09:45:28.475Z,99542.84
2023-08-23T09:48:00.489Z,99549.75
2023-08-23T09:50:28.644Z,99541.44
2023-08-23T09:53:03.897Z,99544.03
2023-08-23T09:55:33.614Z,99548.19
2023-08-23T09:58:02.019Z,99552.34
2023-08-23T10:00:30.010Z,99542.94
2023-08-23T10:02:59.158Z,99544.59
2023-08-23T10:05:28.563Z,99539.06
2023-08-23T10:07:57.867Z,99538.53
2023-08-23T10:10:27.164Z,99544.06
2023-08-23T10:12:56.814Z,99541.59
2023-08-23T10:15:29.879Z,99536.00
2023-08-23T10:17:59.574Z,99536.59
2023-08-23T10:20:27.299Z,99539.03
2023-08-23T10:22:57.453Z,99537.94
2023-08-23T10:25:25.255Z,99527.69
2023-08-23T10:27:54.938Z,99533.75
2023-08-23T10:30:24.094Z,99528.19
2023-08-23T10:32:55.759Z,99529.34
2023-08-23T10:35:32.376Z,99532.16
2023-08-23T10:38:00.976Z,99525.94
2023-08-23T10:40:29.873Z,99522.81
2023-08-23T10:42:58.064Z,99521.25
2023-08-23T10:45:26.583Z,99527.38
2023-08-23T10:47:54.583Z,99526.28
2023-08-23T10:50:22.596Z,99516.13
2023-08-23T10:52:51.230Z,99515.25
2023-08-23T10:55:19.129Z,99516.00
2023-08-23T10:57:47.131Z,99516.84
2023-08-23T11:00:15.738Z,99513.72
2023-08-23T11:02:43.389Z,99502.19
2023-08-23T11:05:11.276Z,99504.50
2023-08-23T11:07:39.821Z,99510.44
2023-08-23T11:10:09.619Z,99507.00
2023-08-23T11:12:39.708Z,99512.63
2023-08-23T11:15:08.065Z,99511.72
2023-08-23T11:17:35.657Z,99512.06
2023-08-23T11:20:04.612Z,99514.84
2023-08-23T11:22:32.479Z,99509.72
2023-08-23T11:25:00.555Z,99512.69
2023-08-23T11:27:28.202Z,99511.56
2023-08-23T11:30:02.451Z,99506.25
2023-08-23T11:32:32.204Z,99509.00
2023-08-23T11:35:01.276Z,99501.56
2023-08-23T11:37:29.706Z,99503.47
2023-08-23T11:39:58.164Z,99500.69
2023-08-23T11:42:26.799Z,99507.94
2023-08-23T11:44:55.924Z,99499.34
2023-08-23T11:47:27.305Z,99493.50
2023-08-23T11:49:55.160Z,99503.75
2023-08-23T11:52:22.824Z,99503.16
2023-08-23T11:54:56.029Z,99504.34
2023-08-23T11:57:23.841Z,99505.75
2023-08-23T11:59:51.407Z,99507.38
2023-08-23T12:02:19.007Z,99508.78
2023-08-23T12:05:06.841Z,99500.97
2023-08-23T12:07:34.377Z,99499.59
2023-08-23T12:10:02.292Z,99502.06
2023-08-23T12:12:29.843Z,99508.47
2023-08-23T12:14:57.397Z,99511.47
2023-08-23T12:17:25.214Z,99507.41
2023-08-23T12:19:52.991Z,99508.78
2023-08-23T12:22:20.587Z,99511.78
2023-08-23T12:24:48.646Z,99503.22
2023-08-23T12:27:16.209Z,99493.75
2023-08-23T12:29:43.816Z,99500.75
2023-08-23T12:32:11.635Z,99498.78
2023-08-23T12:34:39.189Z,99491.25
2023-08-23T12:37:06.964Z,99490.41
2023-08-23T12:39:34.800Z,99497.37
2023-08-23T12:42:02.373Z,99489.31
2023-08-23T12:44:31.228Z,99486.25
2023-08-23T12:46:59.080Z,99480.09
2023-08-23T12:49:26.640Z,99466.81
2023-08-23T12:51:54.267Z,99471.50
2023-08-23T12:54:24.131Z,99467.56
2023-08-23T12:56:51.900Z,99465.13
2023-08-23T12:59:19.472Z,99464.31
2023-08-23T13:01:47.309Z,99459.03
2023-08-23T13:04:14.896Z,99457.03
2023-08-23T13:06:42.457Z,99457.88
2023-08-23T13:09:10.272Z,99454.78
2023-08-23T13:11:38.558Z,99454.00
2023-08-23T13:14:06.140Z,99454.34
2023-08-23T13:16:33.955Z,99453.69
2023-08-23T13:19:01.561Z,99451.53
2023-08-23T13:21:29.172Z,99450.69
2023-08-23T13:24:00.180Z,99453.69
2023-08-23T13:26:28.044Z,99447.66
2023-08-23T13:28:55.692Z,99447.09
2023-08-23T13:31:24.665Z,99446.84
2023-08-23T13:33:52.294Z,99441.81
2023-08-23T13:36:20.209Z,99436.00
2023-08-23T13:38:48.121Z,99432.88
2023-08-23T13:41:15.664Z,99434.84
2023-08-23T13:43:43.235Z,99433.19
2023-08-23T13:46:11.532Z,99439.25
2023-08-23T13:48:41.256Z,99434.03
2023-08-23T13:51:10.814Z,99441.28
2023-08-23T13:53:39.087Z,99434.28
2023-08-23T13:56:06.548Z,99440.94
2023-08-23T13:58:34.109Z,99436.84
2023-08-23T14:01:02.042Z,99435.69
2023-08-23T14:03:29.929Z,99442.09
2023-08-23T14:06:05.088Z,99442.91
2023-08-23T14:08:32.942Z,99444.31
2023-08-23T14:11:00.559Z,99456.53
2023-08-23T14:13:28.176Z,99460.69
2023-08-23T14:15:56.012Z,99462.38
2023-08-23T14:18:24.424Z,99462.09
2023-08-23T14:20:52.013Z,99460.97
2023-08-23T14:23:20.123Z,99463.19
2023-08-23T14:25:47.793Z,99458.41
2023-08-23T14:28:15.379Z,99455.94
2023-08-23T14:30:45.526Z,99464.03
2023-08-23T14:33:13.304Z,99453.75
2023-08-23T14:35:42.070Z,99460.13
2023-08-23T14:38:09.964Z,99459.87
2023-08-23T14:40:37.581Z,99457.63
2023-08-23T14:43:05.800Z,99462.69
2023-08-23T14:45:34.403Z,99459.87
2023-08-23T14:48:02.010Z,99461.53
2023-08-23T14:50:29.595Z,99454.31
2023-08-23T14:52:57.472Z,99458.50
2023-08-23T14:55:26.620Z,99452.09
2023-08-23T14:57:54.133Z,99457.66
2023-08-23T15:00:22.101Z,99459.59
2023-08-23T15:02:49.828Z,99449.59
2023-08-23T15:05:17.461Z,99456.25
2023-08-23T15:07:45.509Z,99467.09
2023-08-23T15:10:13.253Z,99456.53
2023-08-23T15:12:40.814Z,99466.72
2023-08-23T15:15:09.957Z,99465.69
2023-08-23T15:17:37.803Z,99461.25
2023-08-23T15:20:06.504Z,99464.59
2023-08-23T15:22:34.468Z,99452.91
2023-08-23T15:25:02.429Z,99456.53
2023-08-23T15:27:47.568Z,99456.78
2023-08-23T15:30:15.384Z,99458.97
2023-08-23T15:32:43.118Z,99462.56
2023-08-23T15:35:10.982Z,99466.41
2023-08-23T15:37:39.193Z,99465.88
2023-08-23T15:40:07.469Z,99473.06
2023-08-23T15:42:35.101Z,99470.56
2023-08-23T15:45:02.911Z,99466.69
2023-08-23T15:47:30.624Z,99467.53
2023-08-23T15:49:58.138Z,99461.97
2023-08-23T15:52:25.995Z,99463.53
2023-08-23T15:54:53.570Z,99462.44
2023-08-23T15:57:21.772Z,99459.03
2023-08-23T15:59:49.678Z,99463.25
2023-08-23T16:02:17.305Z,99464.06
2023-08-23T16:04:45.365Z,99462.53
2023-08-23T16:07:13.148Z,99458.13
2023-08-23T16:09:43.210Z,99459.34
2023-08-23T16:12:11.640Z,99462.19
2023-08-23T16:14:42.388Z,99463.91
2023-08-23T16:17:10.171Z,99457.88
2023-08-23T16:19:38.865Z,99466.56
2023-08-23T16:22:06.593Z,99468.16
2023-08-23T16:24:34.310Z,99470.62
2023-08-23T16:27:02.108Z,99471.75
2023-08-23T16:29:29.681Z,99473.59
2023-08-23T16:31:57.283Z,99476.28
2023-08-23T16:34:25.570Z,99468.31
2023-08-23T16:36:53.102Z,99466.81
2023-08-23T16:39:20.976Z,99470.97
2023-08-23T16:41:49.418Z,99479.56
2023-08-23T16:44:17.802Z,99466.25
2023-08-23T16:46:45.325Z,99475.41
2023-08-23T16:49:13.130Z,99461.75
2023-08-23T16:51:40.765Z,99481.94
2023-08-23T16:54:08.446Z,99485.59
2023-08-23T16:56:36.338Z,99482.31
2023-08-23T16:59:04.001Z,99483.66
2023-08-23T17:01:31.642Z,99485.38
2023-08-23T17:03:59.648Z,99475.94
2023-08-23T17:06:27.573Z,99480.63
2023-08-23T17:08:55.108Z,99480.34
2023-08-23T17:11:22.923Z,99477.22
2023-08-23T17:13:50.605Z,99479.09
2023-08-23T17:16:18.357Z,99472.12
2023-08-23T17:18:46.227Z,99474.97
2023-08-23T17:21:13.846Z,99483.31
2023-08-23T17:23:41.622Z,99489.69
2023-08-23T17:26:09.755Z,99485.72
2023-08-23T17:28:39.435Z,99479.28
2023-08-23T17:31:08.545Z,99487.00
2023-08-23T17:33:36.918Z,99489.50
2023-08-23T17:36:06.357Z,99491.66
2023-08-23T17:38:34.121Z,99488.66
2023-08-23T17:41:06.181Z,99491.19
2023-08-23T17:43:35.041Z,99485.66
2023-08-23T17:46:07.924Z,99494.12
2023-08-23T17:48:35.580Z,99491.66
2023-08-23T17:51:03.485Z,99507.94
2023-08-23T17:53:31.407Z,99505.69
2023-08-23T17:56:05.020Z,99507.88
2023-08-23T17:58:32.885Z,99511.28
2023-08-23T18:01:00.661Z,99514.34
2023-08-23T18:03:28.779Z,99513.91
2023-08-23T18:05:56.297Z,99523.25
2023-08-23T18:08:23.962Z,99521.72
2023-08-23T18:10:54.239Z,99530.31
2023-08-23T18:13:21.945Z,99527.75
2023-08-23T18:15:49.596Z,99528.94
2023-08-23T18:18:20.155Z,99532.47
2023-08-23T18:20:47.984Z,99534.28
2023-08-23T18:23:15.567Z,99536.78
2023-08-23T18:25:43.728Z,99538.97
2023-08-23T18:28:11.229Z,99532.28
2023-08-23T18:30:39.900Z,99532.53
2023-08-23T18:33:09.390Z,99525.34
2023-08-23T18:35:37.023Z,99534.16
2023-08-23T18:38:04.729Z,99541.13
2023-08-23T18:40:32.507Z,99542.38
2023-08-23T18:43:00.197Z,99541.56
2023-08-23T18:45:27.760Z,99550.87
2023-08-23T18:47:55.621Z,99543.16
2023-08-23T18:50:23.168Z,99548.69
2023-08-23T18:52:51.741Z,99556.72
2023-08-23T18:55:19.927Z,99557.38
2023-08-23T18:57:50.505Z,99553.59
2023-08-23T19:00:18.238Z,99554.62
2023-08-23T19:02:46.254Z,99558.25
2023-08-23T19:05:20.392Z,99567.59
2023-08-23T19:07:50.522Z,99565.00
2023-08-23T19:10:18.132Z,99565.00
2023-08-23T19:12:46.809Z,99565.84
2023-08-23T19:15:15.155Z,99561.91
2023-08-23T19:17:45.992Z,99565.97
2023-08-23T19:20:14.472Z,99565.13
2023-08-23T19:22:42.503Z,99570.41
2023-08-23T19:25:10.184Z,99570.91
2023-08-23T19:27:37.773Z,99568.19
2023-08-23T19:30:26.152Z,99577.47
2023-08-23T19:32:54.502Z,99580.69
2023-08-23T19:35:23.482Z,99586.59
2023-08-23T19:37:52.015Z,99584.69
2023-08-23T19:40:19.979Z,99597.47
2023-08-23T19:42:47.800Z,99594.59
2023-08-23T19:45:16.289Z,99600.56
2023-08-23T19:47:44.156Z,99603.88
2023-08-23T19:50:12.036Z,99611.94
2023-08-23T19:52:39.654Z,99611.59
2023-08-23T19:55:07.697Z,99610.41
2023-08-23T19:57:37.856Z,99604.63
2023-08-23T20:00:06.105Z,99612.06
2023-08-23T20:02:42.529Z,99617.47
2023-08-23T20:05:12.722Z,99617.25
2023-08-23T20:07:42.260Z,99616.16
2023-08-23T20:10:10.224Z,99621.56
2023-08-23T20:12:39.305Z,99622.78
2023-08-23T20:15:07.670Z,99624.31
2023-08-23T20:17:35.824Z,99623.69
2023-08-23T20:20:04.012Z,99622.66
2023-08-23T20:22:31.847Z,99621.34
2023-08-23T20:25:00.027Z,99616.03
2023-08-23T20:27:27.718Z,99614.13
2023-08-23T20:29:55.356Z,99616.62
2023-08-23T20:32:23.408Z,99627.31
2023-08-23T20:34:51.118Z,99626.38
2023-08-23T20:37:18.611Z,99626.47
2023-08-23T20:39:46.469Z,99632.72
2023-08-23T20:42:14.294Z,99626.97
2023-08-23T20:44:41.990Z,99628.75
2023-08-23T20:47:09.970Z,99635.72
2023-08-23T20:49:37.947Z,99640.75
2023-08-23T20:52:05.767Z,99643.87
2023-08-23T20:54:33.801Z,99647.59
2023-08-23T20:57:01.350Z,99646.62
2023-08-23T20:59:29.041Z,99649.75
2023-08-23T21:01:57.063Z,99649.38
2023-08-23T21:04:26.092Z,99649.38
2023-08-23T21:06:53.682Z,99651.41
2023-08-23T21:09:21.545Z,99649.50
2023-08-23T21:11:49.216Z,99647.19
2023-08-23T21:14:16.793Z,99649.87
2023-08-23T21:16:45.482Z,99653.69
2023-08-23T21:19:13.913Z,99655.25
2023-08-23T21:21:41.460Z,99655.72
2023-08-23T21:24:09.735Z,99666.63
2023-08-23T21:26:37.221Z,99659.31
2023-08-23T21:29:04.790Z,99667.34
2023-08-23T21:31:32.900Z,99671.41
2023-08-23T21:34:00.468Z,99670.59
2023-08-23T21:36:28.020Z,99677.88
2023-08-23T21:38:55.766Z,99671.53
2023-08-23T21:41:23.291Z,99666.50
2023-08-23T21:43:50.753Z,99670.72
2023-08-23T21:46:18.663Z,99669.25
2023-08-23T21:48:46.243Z,99672.75
2023-08-23T21:51:13.796Z,99667.94
2023-08-23T21:53:41.673Z,99661.22
2023-08-23T21:56:09.218Z,99654.41
2023-08-23T21:58:36.692Z,99658.09
2023-08-23T22:01:04.613Z,99658.25
2023-08-23T22:03:42.080Z,99662.91
2023-08-23T22:06:11.564Z,99656.56
2023-08-23T22:08:41.536Z,99657.63
2023-08-23T22:11:15.407Z,99652.59
2023-08-23T22:13:44.460Z,99650.50
2023-08-23T22:16:13.843Z,99647.16
2023-08-23T22:18:42.469Z,99651.69
2023-08-23T22:21:11.446Z,99649.28
2023-08-23T22:23:39.183Z,99648.59
2023-08-23T22:26:07.118Z,99649.59
2023-08-23T22:28:35.109Z,99642.56
2023-08-23T22:31:02.854Z,99638.53
2023-08-23T22:33:30.456Z,99642.03
2023-08-23T22:35:59.013Z,99641.06
2023-08-23T22:38:27.293Z,99638.78
2023-08-23T22:40:56.192Z,99638.62
2023-08-23T22:43:24.430Z,99640.63
2023-08-23T22:45:53.246Z,99643.50
2023-08-23T22:48:20.836Z,99647.72
2023-08-23T22:50:49.023Z,99651.53
2023-08-23T22:53:16.463Z,99649.25
2023-08-23T22:55:44.038Z,99642.47
2023-08-23T22:58:11.867Z,99653.00
2023-08-23T23:00:39.432Z,99642.78
2023-08-23T23:03:07.024Z,99642.19
2023-08-23T23:05:37.737Z,99642.63
2023-08-23T23:08:06.840Z,99648.97
2023-08-23T23:10:34.662Z,99645.13
2023-08-23T23:13:03.338Z,99645.28
2023-08-23T23:15:31.132Z,99657.34
2023-08-23T23:17:58.917Z,99645.94
2023-08-23T23:20:26.435Z,99653.66
2023-08-23T23:22:54.066Z,99661.81
2023-08-23T23:25:21.896Z,99659.31
2023-08-23T23:27:49.644Z,99649.13
2023-08-23T23:30:17.558Z,99655.47
2023-08-23T23:32:45.477Z,99663.38
2023-08-23T23:35:13.652Z,99664.44
2023-08-23T23:37:41.176Z,99666.91
2023-08-23T23:40:10.451Z,99668.22
2023-08-23T23:42:38.153Z,99673.47
2023-08-23T23:45:06.265Z,99666.91
2023-08-23T23:47:34.089Z,99660.63
2023-08-23T23:50:02.306Z,99671.59
2023-08-23T23:52:29.823Z,99659.03
2023-08-23T23:54:57.636Z,99660.06
2023-08-23T23:57:25.122Z,99655.66
2023-08-23T23:59:52.772Z,99660.09
